• Join FlightAware (Why Join?)
  • Login
  • US Flag 
07:40AM EDT


 

Airport Tracker/Info


-or-


 

Live Flight TrackerFlight Track Log ✈ ASQ5025 ✈ 29-Apr-2013 ✈ KBTV - KLGA

Flight Track Log - Related Links

Times and Time Zones

All times are in EDT time to prevent confusion due to time zone crossing. See the ASQ5025 flight status page for this flight to view local times or setup timezone preferences in your user account.

Time Position Orientation Groundspeed Altitude Reporting Facility
EDT Latitude Longitude Course Direction KTS MPH feet Rate Location/Type
11:37AM 44.3972 -73.0531 196° South 213 245 6,300  Level Boston Center
11:38AM 44.3325 -73.0786 196° South 242 278 9,100 2,040 Climbing Boston Center
11:39AM 44.2572 -73.1156 199° South 280 322 10,400 1,800 Climbing Boston Center
11:40AM 44.1675 -73.1550 198° South 327 376 12,700 2,340 Climbing Boston Center
11:41AM 44.0714 -73.2000 199° South 356 410 15,100 2,400 Climbing Boston Center
11:42AM 44.0113 -73.3222 196° South  Level FlightAware Approximate
11:42AM 43.9792 -73.2450 199° South 363 418 17,600  Level Boston Center
11:43AM 43.8811 -73.2897 198° South 369 425 19,900 2,160 Climbing Boston Center
11:44AM 43.7828 -73.3344 198° South 369 425 22,000 1,800 Climbing Boston Center
11:45AM 43.6822 -73.3817 199° South 376 433 23,600 1,500 Climbing Boston Center
11:46AM 43.5861 -73.4261 199° South 386 444 25,100 1,200 Climbing Boston Center
11:47AM 43.4772 -73.4758 198° South 403 464 26,000 420 Climbing Boston Center
11:48AM 43.3622 -73.5253 197° South 416 479 26,000 -180 Level Boston Center
11:49AM 43.2261 -73.5883 199° South 434 499 25,700 -480 Descending Boston Center
11:50AM 43.0964 -73.6486 199° South 440 506 25,000 -360 Descending Boston Center
11:51AM 42.9811 -73.7003 198° South 445 512 25,000  Level Boston Center
11:52AM 42.8658 -73.7517 198° South 445 512 25,000  Level Boston Center
11:53AM 42.7569 -73.8003 198° South 437 503 25,000 -360 Level Boston Center
11:54AM 42.6072 -73.7828 175° South 425 489 24,300 -480 Descending Boston Center
11:55AM 42.4886 -73.7550 170° South 430 495 24,000 -480 Descending Boston Center
11:56AM 42.3661 -73.7300 171° South 440 506 23,400 -1,500 Descending Boston Center
11:57AM 42.2600 -73.6997 168° South 447 514 21,000 -2,580 Descending Boston Center
11:58AM 42.1289 -73.6775 173° South 447 514 18,300 -1,500 Descending Boston Center
11:59AM 42.0292 -73.6558 171° South 430 495 18,000 -180 Descending Boston Center
12:00PM 41.9103 -73.6703 185° South 400 460 18,000 -780 Level Boston Center
12:01PM 41.8142 -73.6936 190° South 395 455 16,500 -1,860 Descending Boston Center
12:02PM 41.7033 -73.7192 190° South 376 433 14,300 -1,860 Descending Boston Center
12:04PM 41.5667 -73.7500 190° South 326 375 12,100 -1,500 Descending New York TRACON
12:05PM 41.4833 -73.7667 189° South 295 339 10,800 -1,440 Descending New York TRACON
12:06PM 41.4167 -73.7833 191° South 275 316 9,300 -1,440 Descending New York TRACON
12:07PM 41.3333 -73.7833 180° South 270 311 8,000 -660 Descending New York TRACON
12:08PM 41.2833 -73.7333 143° Southeast 273 314 8,000  Level New York TRACON
12:09PM 41.2167 -73.6833 151° Southeast 271 312 8,000 -480 Level New York TRACON
12:10PM 41.1500 -73.6500 159° South 230 265 7,100 -1,200 Descending New York TRACON
12:11PM 41.1000 -73.6333 166° South 207 238 5,600 -1,260 Descending New York TRACON
12:12PM 41.0500 -73.6500 194° South 175 201 4,500 -900 Descending New York TRACON
12:13PM 41.0000 -73.6833 207° Southwest 172 198 3,800 -780 Descending New York TRACON
12:14PM 40.9667 -73.7167 217° Southwest 172 198 3,000 -420 Descending New York TRACON
12:15PM 40.9333 -73.7500 217° Southwest 172 198 3,000 -300 Level New York TRACON
12:16PM 40.8833 -73.7833 207° Southwest 173 199 2,500 -780 Descending New York TRACON
12:17PM 40.8500 -73.8167 217° Southwest 168 193 1,500 -900 Descending New York TRACON
12:18PM 40.8167 -73.8500 217° Southwest 131 151 800 -720 Descending New York TRACON
12:20PM 40.7772 -73.8726 180° South  Level Estimated
12:27PM 40.7772 -73.8726 180° South  Level Estimated
12:28PM 40.7772 -73.8726 180° South  Level Estimated